Time;durP1;ratioP1;P1;durP2;ratioP2;P2;SDS_P1;SDS_P2;PMS_P1;PMS_P2;Temp;Humidity;BMP_temperature;BMP_pressure;BME280_temperature;BME280_humidity;BME280_pressure;Samples;Min_cycle;Max_cycle;Signal;HPM_P1;HPM_P2
2021/08/27 00:01:38;;;;;;;0.10;0.10;;;;;;;10.02;60.35;98779.16;6245304;23;20008;-63
2021/08/27 00:04:04;;;;;;;0.13;0.13;;;;;;;10.00;60.60;98784.88;6244596;23;20012;-63
2021/08/27 00:06:30;;;;;;;0.20;0.20;;;;;;;9.98;60.59;98778.75;6244954;23;20038;-63
2021/08/27 00:08:55;;;;;;;0.20;0.20;;;;;;;9.96;60.47;98780.91;6245061;23;20008;-62
2021/08/27 00:11:21;;;;;;;0.30;0.30;;;;;;;9.90;60.65;98774.44;6244711;23;20456;-63
2021/08/27 00:13:47;;;;;;;0.20;0.20;;;;;;;9.90;60.79;98781.84;6245019;23;20048;-63
2021/08/27 00:16:13;;;;;;;0.40;0.40;;;;;;;9.88;60.71;98773.84;6244898;23;20008;-63
2021/08/27 00:18:38;;;;;;;0.22;0.17;;;;;;;9.87;60.67;98780.38;6244849;23;20015;-64
2021/08/27 00:21:04;;;;;;;0.13;0.13;;;;;;;9.85;61.01;98776.19;6244882;23;20015;-63
2021/08/27 00:23:30;;;;;;;0.22;0.22;;;;;;;9.82;61.02;98780.25;6244971;23;20019;-64
2021/08/27 00:25:56;;;;;;;0.20;0.20;;;;;;;9.81;61.03;98792.28;6244663;23;20361;-63
2021/08/27 00:28:21;;;;;;;0.20;0.20;;;;;;;9.79;60.90;98787.03;6244981;23;20008;-66
2021/08/27 00:30:47;;;;;;;0.10;0.10;;;;;;;9.76;61.13;98787.50;6244591;23;20008;-62
2021/08/27 00:33:13;;;;;;;0.10;0.10;;;;;;;9.75;61.14;98788.56;6244178;23;20453;-62
2021/08/27 00:35:39;;;;;;;1.27;0.43;;;;;;;9.73;61.28;98801.69;6244672;23;20031;-62
2021/08/27 00:38:06;;;;;;;0.10;0.10;;;;;;;9.74;61.28;98792.34;6244764;23;20043;-62
2021/08/27 00:40:32;;;;;;;0.32;0.32;;;;;;;9.77;61.20;98791.91;6244747;23;20449;-63
2021/08/27 00:42:58;;;;;;;0.20;0.20;;;;;;;9.79;61.16;98789.78;6244669;23;20039;-63
2021/08/27 00:45:24;;;;;;;0.30;0.30;;;;;;;9.81;60.93;98801.34;6217783;23;20381;-62
2021/08/27 00:47:50;;;;;;;0.35;0.35;;;;;;;9.89;60.68;98802.94;6244914;23;20384;-63
2021/08/27 00:50:16;;;;;;;0.20;0.20;;;;;;;9.98;60.57;98806.19;6244413;23;20008;-62
2021/08/27 00:52:42;;;;;;;0.10;0.10;;;;;;;10.06;60.40;98803.13;6244585;23;20012;-63
2021/08/27 00:55:08;;;;;;;0.35;0.35;;;;;;;10.14;60.37;98804.72;6244544;23;20356;-64
2021/08/27 00:57:35;;;;;;;0.10;0.10;;;;;;;10.21;60.38;98807.38;6244437;23;20460;-63
2021/08/27 01:00:02;;;;;;;0.10;0.10;;;;;;;10.28;60.01;98810.88;6218024;23;20414;-62
2021/08/27 01:02:30;;;;;;;0.22;0.22;;;;;;;10.36;60.04;98810.56;6217254;23;20352;-62
2021/08/27 01:04:57;;;;;;;0.30;0.30;;;;;;;10.41;60.05;98807.09;6244584;23;20023;-64
2021/08/27 01:07:47;;;;;;;0.25;0.25;;;;;;;10.44;60.08;98807.50;6244476;23;20099;-63
2021/08/27 01:10:31;;;;;;;0.40;0.40;;;;;;;10.44;60.15;98814.91;6189270;23;20491;-65
2021/08/27 01:13:32;;;;;;;0.20;0.20;;;;;;;10.49;59.85;98818.59;6244569;23;20004;-63
2021/08/27 01:16:09;;;;;;;0.28;0.28;;;;;;;10.50;59.92;98813.97;6217721;23;20016;-63
2021/08/27 01:18:44;;;;;;;0.65;0.40;;;;;;;10.51;60.13;98816.47;6244721;23;20042;-63
2021/08/27 01:21:28;;;;;;;0.10;0.10;;;;;;;10.50;59.92;98831.25;6244455;23;20016;-63
2021/08/27 01:24:06;;;;;;;0.20;0.20;;;;;;;10.50;60.33;98825.75;6245972;23;20007;-66
2021/08/27 01:26:36;;;;;;;1.20;0.50;;;;;;;10.52;60.08;98820.88;6246503;23;20012;-65
2021/08/27 01:29:04;;;;;;;0.13;0.13;;;;;;;10.54;60.13;98828.03;6246273;23;20468;-64
2021/08/27 01:31:42;;;;;;;0.30;0.30;;;;;;;10.58;60.14;98834.75;6245897;23;20012;-65
2021/08/27 01:34:32;;;;;;;0.47;0.47;;;;;;;10.68;59.77;98827.59;6245756;23;20404;-62
2021/08/27 01:36:58;;;;;;;0.50;0.50;;;;;;;10.79;59.68;98831.47;6246640;23;20432;-63
2021/08/27 01:39:29;;;;;;;0.47;0.47;;;;;;;10.89;59.48;98833.59;6246265;23;20035;-63
2021/08/27 01:41:56;;;;;;;0.57;0.57;;;;;;;10.95;59.71;98831.84;6246331;23;20008;-64
2021/08/27 01:44:25;;;;;;;0.68;0.60;;;;;;;11.01;59.36;98841.88;6246238;23;20503;-63
2021/08/27 01:46:54;;;;;;;0.30;0.30;;;;;;;11.07;59.37;98840.94;6246164;23;20042;-62
2021/08/27 01:49:21;;;;;;;1.08;0.75;;;;;;;11.14;59.41;98846.31;6246145;23;20052;-63
2021/08/27 01:51:48;;;;;;;0.25;0.25;;;;;;;11.20;59.19;98837.97;6246098;23;20070;-64
2021/08/27 01:54:15;;;;;;;0.20;0.20;;;;;;;11.28;59.05;98846.91;6219270;23;20091;-64
2021/08/27 01:56:42;;;;;;;0.50;0.50;;;;;;;11.40;59.05;98850.50;6246034;23;20094;-63
2021/08/27 01:59:09;;;;;;;0.70;0.52;;;;;;;11.46;58.84;98837.72;6245929;23;20008;-63
2021/08/27 02:01:36;;;;;;;0.30;0.30;;;;;;;11.59;58.66;98851.22;6245958;23;20039;-64
2021/08/27 02:04:07;;;;;;;0.20;0.20;;;;;;;11.68;58.20;98846.19;6245348;23;20012;-64
2021/08/27 02:06:34;;;;;;;0.32;0.32;;;;;;;12.04;57.84;98845.06;6245934;23;20392;-64
2021/08/27 02:09:01;;;;;;;0.20;0.20;;;;;;;12.12;57.64;98852.09;6245660;23;20012;-63
2021/08/27 02:11:30;;;;;;;0.20;0.20;;;;;;;12.60;56.72;98831.56;6245317;23;20012;-63
2021/08/27 02:13:57;;;;;;;0.75;0.70;;;;;;;12.92;55.85;98832.91;6245600;23;20012;-61
2021/08/27 02:16:23;;;;;;;1.58;0.45;;;;;;;12.99;55.70;98843.78;6246234;23;20018;-63
2021/08/27 02:18:49;;;;;;;6.28;0.60;;;;;;;13.18;55.53;98849.88;6245913;23;20036;-62
2021/08/27 02:21:16;;;;;;;0.10;0.10;;;;;;;13.27;55.65;98829.91;6245574;23;20147;-63
2021/08/27 02:23:44;;;;;;;0.10;0.10;;;;;;;13.56;55.00;98831.72;6245561;23;20012;-63
2021/08/27 02:26:13;;;;;;;0.10;0.10;;;;;;;13.69;54.88;98836.88;6245915;23;20027;-64
2021/08/27 02:28:41;;;;;;;0.30;0.30;;;;;;;14.15;54.11;98839.41;6245645;23;20373;-63
2021/08/27 02:31:07;;;;;;;0.40;0.40;;;;;;;16.32;49.45;98855.81;6246075;23;20004;-63
2021/08/27 02:33:35;;;;;;;1.08;0.25;;;;;;;16.78;48.95;98831.81;6244590;23;20419;-63
2021/08/27 02:36:03;;;;;;;0.20;0.20;;;;;;;17.33;47.94;98837.69;6245782;23;20008;-63
2021/08/27 02:38:31;;;;;;;0.45;0.28;;;;;;;16.41;50.09;98843.91;6245480;23;20012;-63
2021/08/27 02:40:57;;;;;;;1.83;0.30;;;;;;;18.04;47.24;98848.94;6218816;23;20099;-63
2021/08/27 02:43:22;;;;;;;0.20;0.20;;;;;;;19.68;44.70;98835.88;6246015;23;20119;-61
2021/08/27 02:45:48;;;;;;;0.30;0.30;;;;;;;20.81;42.72;98845.66;6245849;23;20012;-62
2021/08/27 02:48:14;;;;;;;0.25;0.25;;;;;;;21.93;41.66;98846.88;6245720;23;20470;-64
2021/08/27 02:50:46;;;;;;;0.40;0.40;;;;;;;22.97;40.50;98849.16;6245637;23;20087;-62
2021/08/27 02:53:19;;;;;;;0.10;0.10;;;;;;;24.37;38.55;98860.41;6218699;23;20552;-62
2021/08/27 02:55:50;;;;;;;0.10;0.10;;;;;;;25.58;37.66;98856.06;6246100;23;20529;-64
2021/08/27 02:58:23;;;;;;;1.80;0.35;;;;;;;26.44;36.93;98841.19;6245806;23;20018;-63
2021/08/27 03:00:58;;;;;;;0.17;0.17;;;;;;;26.15;37.71;98860.53;6245894;23;20008;-63
2021/08/27 03:03:26;;;;;;;0.13;0.13;;;;;;;26.11;38.49;98845.50;6244756;23;20311;-62
2021/08/27 03:06:19;;;;;;;0.10;0.10;;;;;;;26.43;38.22;98850.78;6245361;23;20007;-63
2021/08/27 03:08:53;;;;;;;1.98;0.30;;;;;;;26.63;38.52;98835.09;6230583;23;20346;-63
2021/08/27 03:11:28;;;;;;;0.10;0.10;;;;;;;27.30;37.47;98846.53;6245416;23;20012;-63
2021/08/27 03:14:44;;;;;;;0.15;0.15;;;;;;;27.83;37.25;98855.31;6245385;23;20012;-64
2021/08/27 03:17:16;;;;;;;0.20;0.20;;;;;;;27.92;37.31;98847.59;6123255;23;20016;-63
2021/08/27 03:19:54;;;;;;;1.08;0.25;;;;;;;28.18;36.90;98844.47;6123745;23;20014;-62
2021/08/27 03:22:26;;;;;;;0.88;0.20;;;;;;;28.17;37.11;98856.94;6205586;23;20004;-64
2021/08/27 03:25:04;;;;;;;0.10;0.10;;;;;;;28.01;37.27;98858.81;6245819;23;20094;-62
2021/08/27 03:28:03;;;;;;;0.20;0.20;;;;;;;28.18;37.12;98857.75;6245680;23;20000;-63
2021/08/27 03:30:31;;;;;;;0.20;0.20;;;;;;;27.97;37.69;98850.19;6245364;23;20039;-62
2021/08/27 03:33:03;;;;;;;0.88;0.15;;;;;;;26.04;41.06;98850.81;6244570;23;20091;-63
2021/08/27 03:35:30;;;;;;;0.10;0.10;;;;;;;26.97;38.94;98855.75;6245679;23;20012;-62
2021/08/27 03:37:58;;;;;;;0.30;0.20;;;;;;;26.35;39.95;98852.50;6245190;23;20015;-61
2021/08/27 03:40:25;;;;;;;1.10;0.20;;;;;;;26.40;39.61;98858.75;6245256;23;20042;-64
2021/08/27 03:42:53;;;;;;;0.22;0.22;;;;;;;26.78;38.88;98851.44;6245196;23;20069;-62
2021/08/27 03:45:22;;;;;;;0.10;0.10;;;;;;;27.10;38.34;98863.97;6241808;23;20008;-62
2021/08/27 03:47:50;;;;;;;0.10;0.10;;;;;;;26.31;39.63;98863.63;6244872;23;20520;-63
2021/08/27 03:50:16;;;;;;;0.00;0.00;;;;;;;26.02;39.82;98865.22;6244807;23;20023;-63
2021/08/27 03:52:45;;;;;;;0.10;0.10;;;;;;;25.87;40.10;98863.75;6244822;23;20031;-64
2021/08/27 03:55:13;;;;;;;0.20;0.20;;;;;;;26.00;39.75;98861.09;6245093;23;20022;-63
2021/08/27 03:57:42;;;;;;;0.32;0.32;;;;;;;26.06;39.43;98854.13;6245205;23;20393;-63
2021/08/27 04:00:09;;;;;;;0.20;0.20;;;;;;;25.65;40.21;98872.44;6244863;23;20008;-62
2021/08/27 04:02:35;;;;;;;0.10;0.10;;;;;;;26.75;38.08;98857.75;6244809;23;20009;-63
2021/08/27 04:05:10;;;;;;;0.10;0.10;;;;;;;27.23;37.07;98866.84;6218131;23;20433;-62
2021/08/27 04:07:35;;;;;;;0.10;0.10;;;;;;;27.35;37.18;98875.38;6245326;23;20055;-62
2021/08/27 04:10:01;;;;;;;0.20;0.20;;;;;;;27.51;36.71;98875.56;6245000;23;20008;-61
2021/08/27 04:12:27;;;;;;;0.10;0.10;;;;;;;28.03;36.06;98876.19;6244706;23;20043;-63
2021/08/27 04:14:53;;;;;;;0.30;0.30;;;;;;;28.41;35.73;98875.06;6244954;23;20091;-63
2021/08/27 04:17:18;;;;;;;0.30;0.30;;;;;;;27.44;37.15;98864.00;6245268;23;20043;-63
2021/08/27 04:19:44;;;;;;;0.20;0.20;;;;;;;27.06;37.67;98867.78;6244490;23;20012;-63
2021/08/27 04:22:10;;;;;;;0.10;0.10;;;;;;;26.19;38.96;98871.94;6242956;23;20019;-62
2021/08/27 04:24:35;;;;;;;0.10;0.10;;;;;;;25.29;40.53;98871.59;6244408;23;20073;-63
2021/08/27 04:27:01;;;;;;;0.10;0.10;;;;;;;25.42;40.10;98866.16;6244808;23;20015;-63
2021/08/27 04:29:27;;;;;;;0.10;0.10;;;;;;;25.58;39.52;98869.28;6244462;23;20020;-63
2021/08/27 04:31:53;;;;;;;0.20;0.20;;;;;;;25.44;39.21;98873.13;6243266;23;20008;-63
2021/08/27 04:34:18;;;;;;;0.47;0.47;;;;;;;24.47;40.81;98883.38;6242341;23;20012;-63
2021/08/27 04:36:44;;;;;;;0.17;0.17;;;;;;;22.99;43.38;98882.44;6243066;23;20016;-62
2021/08/27 04:39:10;;;;;;;5.03;0.45;;;;;;;21.74;45.35;98883.28;6242872;23;20062;-64
2021/08/27 04:41:35;;;;;;;0.13;0.13;;;;;;;20.96;46.46;98886.47;6243265;23;20364;-63
2021/08/27 04:44:01;;;;;;;0.75;0.30;;;;;;;20.61;46.50;98888.63;6243009;23;20031;-63
2021/08/27 04:46:27;;;;;;;0.20;0.20;;;;;;;20.29;46.63;98898.50;6243313;23;20035;-62
2021/08/27 04:48:53;;;;;;;0.10;0.10;;;;;;;19.92;46.74;98890.81;6243028;23;20009;-63
2021/08/27 04:51:19;;;;;;;0.17;0.17;;;;;;;19.52;47.06;98893.69;6243387;23;20038;-63
2021/08/27 04:53:44;;;;;;;0.25;0.25;;;;;;;19.09;47.52;98890.69;6216509;23;20023;-64
2021/08/27 04:56:10;;;;;;;0.60;0.60;;;;;;;18.91;47.43;98890.25;6243317;23;20008;-62
2021/08/27 04:58:36;;;;;;;0.43;0.43;;;;;;;18.98;47.06;98891.91;6245596;23;20019;-62
2021/08/27 05:01:02;;;;;;;0.40;0.30;;;;;;;19.13;46.22;98894.56;6245904;23;20460;-63
2021/08/27 05:03:28;;;;;;;0.10;0.10;;;;;;;19.03;46.11;98889.88;6253153;23;20008;-63
2021/08/27 05:05:53;;;;;;;0.20;0.20;;;;;;;18.86;46.35;98898.63;6250358;23;20014;-62
2021/08/27 05:08:19;;;;;;;0.10;0.10;;;;;;;18.70;46.38;98899.81;6244885;23;20048;-63
2021/08/27 05:10:45;;;;;;;0.13;0.13;;;;;;;18.61;46.24;98904.28;6244600;23;20019;-63
2021/08/27 05:13:10;;;;;;;0.43;0.43;;;;;;;18.61;46.16;98895.94;6244579;23;20441;-63
2021/08/27 05:15:36;;;;;;;0.57;0.30;;;;;;;18.53;46.19;98898.19;6244870;23;20008;-63
2021/08/27 05:18:02;;;;;;;0.20;0.20;;;;;;;18.53;46.02;98892.63;6244917;23;20079;-63
2021/08/27 05:20:28;;;;;;;0.20;0.20;;;;;;;18.58;45.99;98896.53;6245115;23;20343;-64
2021/08/27 05:22:53;;;;;;;0.20;0.20;;;;;;;18.66;45.49;98882.84;6244986;23;20012;-65
2021/08/27 05:25:19;;;;;;;1.55;0.40;;;;;;;18.74;45.24;98884.19;6244930;23;20453;-63
2021/08/27 05:27:45;;;;;;;0.10;0.10;;;;;;;18.88;44.79;98879.69;6244876;23;20008;-63
2021/08/27 05:30:12;;;;;;;0.10;0.10;;;;;;;19.11;44.65;98877.31;6244804;23;20012;-62
2021/08/27 05:32:38;;;;;;;0.70;0.55;;;;;;;19.35;44.17;98882.97;6244322;23;20477;-63
2021/08/27 05:35:05;;;;;;;0.20;0.20;;;;;;;19.73;43.29;98874.00;6244678;23;20050;-64
2021/08/27 05:37:30;;;;;;;0.17;0.17;;;;;;;19.87;43.31;98882.53;6244968;23;20008;-63
2021/08/27 05:39:56;;;;;;;0.40;0.40;;;;;;;19.85;43.39;98885.59;6245197;23;20011;-64
2021/08/27 05:42:22;;;;;;;0.30;0.30;;;;;;;19.67;43.61;98889.09;6244718;23;20019;-63
2021/08/27 05:44:47;;;;;;;0.20;0.20;;;;;;;19.48;44.28;98878.69;6244975;23;20004;-62
2021/08/27 05:47:13;;;;;;;0.20;0.20;;;;;;;19.53;43.76;98884.19;6244683;23;20012;-64
2021/08/27 05:49:39;;;;;;;0.75;0.75;;;;;;;19.85;43.37;98885.59;6244956;23;20019;-65
2021/08/27 05:52:05;;;;;;;0.17;0.17;;;;;;;20.19;42.82;98879.09;6244534;23;20464;-65
2021/08/27 05:54:31;;;;;;;0.15;0.15;;;;;;;20.43;42.44;98878.25;6244859;23;20011;-64
2021/08/27 05:56:56;;;;;;;0.47;0.47;;;;;;;20.53;42.33;98878.13;6245277;23;20019;-63
2021/08/27 05:59:22;;;;;;;2.50;0.38;;;;;;;20.63;42.15;98883.56;6217969;23;20050;-65
2021/08/27 06:01:48;;;;;;;0.32;0.32;;;;;;;20.63;42.21;98883.56;6245025;23;20015;-64
2021/08/27 06:04:14;;;;;;;0.15;0.15;;;;;;;20.75;42.25;98888.72;6244127;23;20012;-63
2021/08/27 06:06:41;;;;;;;0.10;0.10;;;;;;;20.44;42.73;98879.91;6244324;23;20102;-64
2021/08/27 06:09:07;;;;;;;0.10;0.10;;;;;;;20.35;42.79;98878.94;6244499;23;20400;-65
2021/08/27 06:11:37;;;;;;;0.35;0.15;;;;;;;20.09;43.18;98863.31;6244485;23;20038;-66
2021/08/27 06:14:05;;;;;;;0.30;0.30;;;;;;;20.05;43.28;98873.41;6245444;23;20012;-65
2021/08/27 06:16:31;;;;;;;0.10;0.10;;;;;;;20.00;43.50;98873.47;6245815;23;20012;-64
2021/08/27 06:18:58;;;;;;;0.20;0.20;;;;;;;19.79;44.15;98864.50;6245878;23;20111;-64
2021/08/27 06:21:24;;;;;;;0.30;0.30;;;;;;;19.67;44.12;98872.38;6245751;23;20384;-64
2021/08/27 06:23:52;;;;;;;0.10;0.10;;;;;;;19.56;44.31;98871.66;6245700;23;20070;-63
2021/08/27 06:26:18;;;;;;;0.10;0.10;;;;;;;19.54;44.08;98871.94;6245822;23;20008;-64
2021/08/27 06:28:44;;;;;;;0.10;0.10;;;;;;;19.46;44.22;98886.50;6246389;23;20398;-63
2021/08/27 06:31:10;;;;;;;0.10;0.10;;;;;;;19.21;44.62;98876.41;6245503;23;20019;-63
2021/08/27 06:33:35;;;;;;;0.17;0.17;;;;;;;18.98;45.16;98872.41;6245155;23;20356;-62
2021/08/27 06:36:01;;;;;;;0.10;0.10;;;;;;;18.82;45.13;98877.22;6245679;23;20015;-64
2021/08/27 06:38:27;;;;;;;0.63;0.28;;;;;;;18.65;45.39;98866.44;6245567;23;20099;-63
2021/08/27 06:40:58;;;;;;;0.45;0.20;;;;;;;18.72;45.23;98865.00;6246150;23;20012;-63
2021/08/27 06:43:27;;;;;;;0.10;0.10;;;;;;;18.95;44.67;98872.97;6245460;23;20012;-62
2021/08/27 06:45:54;;;;;;;0.10;0.10;;;;;;;19.10;44.34;98867.31;6245617;23;20022;-63
2021/08/27 06:48:20;;;;;;;0.10;0.10;;;;;;;19.33;43.88;98862.97;6245132;23;20095;-63
2021/08/27 06:50:46;;;;;;;0.32;0.22;;;;;;;19.67;43.37;98875.16;6244459;23;20019;-65
2021/08/27 06:53:12;;;;;;;0.20;0.20;;;;;;;19.55;43.41;98870.84;6245182;23;20012;-66
2021/08/27 06:55:37;;;;;;;0.10;0.10;;;;;;;19.25;44.03;98878.31;6245298;23;20143;-62
2021/08/27 06:58:04;;;;;;;0.10;0.10;;;;;;;19.13;44.36;98866.72;6218857;23;20012;-64
2021/08/27 07:00:30;;;;;;;0.28;0.28;;;;;;;19.02;44.58;98873.47;6245630;23;20352;-63
2021/08/27 07:02:56;;;;;;;0.10;0.10;;;;;;;18.71;45.10;98881.97;6253286;23;20008;-65
2021/08/27 07:05:21;;;;;;;0.22;0.22;;;;;;;18.59;45.04;98871.22;6241957;23;20096;-63
2021/08/27 07:07:47;;;;;;;0.32;0.32;;;;;;;18.65;44.98;98880.34;6242586;23;20019;-63
2021/08/27 07:10:13;;;;;;;0.10;0.10;;;;;;;18.62;44.98;98873.41;6243600;23;20027;-63
2021/08/27 07:12:39;;;;;;;0.10;0.10;;;;;;;18.62;44.82;98873.41;6243321;23;20008;-64
2021/08/27 07:15:06;;;;;;;0.20;0.20;;;;;;;18.54;44.99;98865.69;6243908;23;20047;-68
2021/08/27 07:17:32;;;;;;;1.20;0.20;;;;;;;18.52;44.98;98865.13;6243325;23;20012;-63
2021/08/27 07:19:58;;;;;;;0.10;0.10;;;;;;;18.60;44.80;98866.50;6216350;23;20459;-62
2021/08/27 07:22:24;;;;;;;0.20;0.20;;;;;;;18.63;44.68;98863.97;6243159;23;20441;-64
2021/08/27 07:24:50;;;;;;;0.10;0.10;;;;;;;18.62;44.53;98867.03;6244061;23;20115;-63
2021/08/27 07:27:16;;;;;;;0.63;0.20;;;;;;;18.68;44.63;98868.66;6243074;23;20016;-66
2021/08/27 07:29:41;;;;;;;0.10;0.10;;;;;;;18.81;44.35;98876.34;6243402;23;20015;-63
2021/08/27 07:32:11;;;;;;;0.10;0.10;;;;;;;18.94;44.16;98869.38;6216080;23;20008;-63
2021/08/27 07:34:38;;;;;;;1.20;0.30;;;;;;;18.90;44.14;98862.72;6242727;23;20341;-63
2021/08/27 07:37:04;;;;;;;0.10;0.10;;;;;;;18.90;44.26;98865.50;6244854;23;20012;-65
2021/08/27 07:39:30;;;;;;;0.10;0.10;;;;;;;19.05;44.07;98870.97;6244909;23;20011;-65
2021/08/27 07:41:56;;;;;;;0.30;0.30;;;;;;;19.07;43.93;98865.09;6245467;23;20099;-64
2021/08/27 07:44:21;;;;;;;0.20;0.20;;;;;;;19.00;44.18;98859.84;6244793;23;20367;-63
2021/08/27 07:46:48;;;;;;;0.20;0.20;;;;;;;19.18;44.00;98872.22;6244727;23;20092;-64
2021/08/27 07:49:14;;;;;;;0.32;0.32;;;;;;;19.18;43.75;98874.19;6244840;23;20016;-63
2021/08/27 07:51:39;;;;;;;0.10;0.10;;;;;;;18.91;44.51;98867.16;6244872;23;20449;-62
2021/08/27 07:54:05;;;;;;;0.10;0.10;;;;;;;19.02;44.33;98862.34;6244530;23;20345;-63
2021/08/27 07:56:31;;;;;;;0.20;0.20;;;;;;;19.06;44.36;98866.22;6244586;23;20081;-63
2021/08/27 07:58:57;;;;;;;0.25;0.25;;;;;;;19.15;44.09;98861.69;6244706;23;20012;-64
2021/08/27 08:01:22;;;;;;;0.47;0.47;;;;;;;19.07;44.17;98877.06;6244828;23;20061;-63
2021/08/27 08:03:48;;;;;;;0.40;0.40;;;;;;;19.02;44.55;98876.25;6244238;23;20418;-63
2021/08/27 08:06:14;;;;;;;3.53;0.30;;;;;;;18.94;44.56;98866.56;6244953;23;20026;-62
2021/08/27 08:08:39;;;;;;;0.60;0.55;;;;;;;18.77;44.91;98866.94;6244668;23;20043;-64
2021/08/27 08:11:05;;;;;;;0.50;0.17;;;;;;;18.90;44.63;98863.56;6244875;23;20011;-64
2021/08/27 08:13:31;;;;;;;0.40;0.40;;;;;;;18.98;44.38;98878.81;6238526;23;20189;-62
2021/08/27 08:15:57;;;;;;;0.20;0.20;;;;;;;18.83;44.84;98871.34;6244330;23;20085;-61
2021/08/27 08:18:23;;;;;;;0.20;0.20;;;;;;;18.82;44.83;98872.47;6244460;23;20016;-61
2021/08/27 08:20:49;;;;;;;0.10;0.10;;;;;;;18.77;44.83;98869.75;6245125;23;20012;-60
2021/08/27 08:23:16;;;;;;;0.30;0.30;;;;;;;18.75;44.80;98869.16;6244915;23;20018;-61
2021/08/27 08:25:41;;;;;;;0.17;0.17;;;;;;;18.75;44.86;98858.06;6243495;23;20015;-62
2021/08/27 08:28:12;;;;;;;0.10;0.10;;;;;;;18.86;44.74;98854.13;6242477;23;20012;-62
2021/08/27 08:30:38;;;;;;;0.28;0.25;;;;;;;18.87;44.56;98869.69;6217313;23;20483;-64
2021/08/27 08:33:04;;;;;;;0.40;0.40;;;;;;;18.74;44.57;98868.34;6243482;23;20012;-63
2021/08/27 08:35:29;;;;;;;0.30;0.30;;;;;;;18.55;45.14;98870.09;6244449;23;20032;-63
2021/08/27 08:37:55;;;;;;;0.10;0.10;;;;;;;18.52;45.16;98877.09;6217843;23;20104;-61
2021/08/27 08:40:21;;;;;;;1.25;0.45;;;;;;;18.41;45.35;98857.97;6244471;23;20062;-62
2021/08/27 08:42:48;;;;;;;0.10;0.10;;;;;;;18.51;44.97;98869.88;6244200;23;20092;-61
2021/08/27 08:45:14;;;;;;;0.20;0.20;;;;;;;18.63;44.90;98861.19;6240682;23;20011;-62
2021/08/27 08:47:44;;;;;;;0.10;0.10;;;;;;;18.79;44.55;98858.31;6242254;23;20019;-62
2021/08/27 08:50:11;;;;;;;0.20;0.20;;;;;;;18.87;44.26;98850.22;6241907;23;20127;-65
2021/08/27 08:52:38;;;;;;;0.30;0.30;;;;;;;18.97;44.07;98860.44;6240668;23;20007;-65
2021/08/27 08:55:04;;;;;;;0.20;0.20;;;;;;;19.13;44.07;98849.19;6241198;23;20012;-60
2021/08/27 08:57:30;;;;;;;0.20;0.20;;;;;;;19.22;43.66;98864.16;6241503;23;20008;-63
2021/08/27 08:59:56;;;;;;;0.25;0.17;;;;;;;19.31;43.69;98859.63;6241188;23;20601;-61
2021/08/27 09:02:22;;;;;;;0.10;0.10;;;;;;;19.21;43.92;98866.13;6241774;23;20388;-62
2021/08/27 09:04:48;;;;;;;0.10;0.10;;;;;;;19.10;44.24;98852.56;6244788;23;20423;-61
2021/08/27 09:07:15;;;;;;;2.78;0.32;;;;;;;19.03;44.26;98861.22;6243710;23;20055;-62
2021/08/27 09:09:43;;;;;;;0.30;0.30;;;;;;;18.93;44.39;98851.00;6240877;23;20020;-62
2021/08/27 09:12:18;;;;;;;0.10;0.10;;;;;;;18.93;44.59;98850.19;6214956;23;20479;-62
2021/08/27 09:14:55;;;;;;;0.15;0.15;;;;;;;18.75;44.71;98858.06;6238347;23;20016;-62
2021/08/27 09:17:28;;;;;;;0.10;0.10;;;;;;;18.52;45.14;98857.63;6242437;23;20012;-62
2021/08/27 09:19:54;;;;;;;0.17;0.17;;;;;;;18.42;45.44;98851.28;6242602;23;20396;-62
2021/08/27 09:22:58;;;;;;;0.15;0.15;;;;;;;18.47;45.23;98863.22;6240647;23;20503;-61
2021/08/27 09:25:28;;;;;;;0.10;0.10;;;;;;;18.47;45.13;98852.09;6239540;23;20095;-60
2021/08/27 09:28:09;;;;;;;0.13;0.13;;;;;;;18.51;45.01;98855.97;6239890;23;20007;-62
2021/08/27 09:30:52;;;;;;;1.45;0.20;;;;;;;18.67;44.74;98844.75;6239613;23;20046;-61
2021/08/27 09:33:23;;;;;;;0.20;0.20;;;;;;;18.96;44.00;98849.59;6238767;23;20012;-60
2021/08/27 09:36:01;;;;;;;0.30;0.30;;;;;;;19.09;43.82;98860.06;6239779;23;20019;-64
2021/08/27 09:38:29;;;;;;;0.10;0.10;;;;;;;19.02;44.12;98851.22;6239962;23;20019;-60
2021/08/27 09:41:20;;;;;;;0.10;0.10;;;;;;;18.98;44.27;98850.16;6241743;23;20012;-61
2021/08/27 09:43:52;;;;;;;0.30;0.30;;;;;;;18.81;44.50;98845.75;6243771;23;20104;-62
2021/08/27 09:46:36;;;;;;;0.20;0.20;;;;;;;18.47;45.16;98846.53;6245945;23;20453;-62
2021/08/27 09:49:29;;;;;;;0.10;0.10;;;;;;;18.35;45.37;98846.03;6245904;23;20035;-62
2021/08/27 09:52:00;;;;;;;0.10;0.10;;;;;;;18.28;45.32;98851.91;6245520;23;20437;-64
2021/08/27 09:54:40;;;;;;;0.10;0.10;;;;;;;18.39;44.98;98852.69;6246265;23;20020;-63
2021/08/27 09:57:12;;;;;;;0.17;0.17;;;;;;;18.53;44.67;98852.88;6246240;23;20008;-63
2021/08/27 09:59:51;;;;;;;0.20;0.20;;;;;;;18.61;44.39;98851.44;6245792;23;20012;-62
2021/08/27 10:02:29;;;;;;;0.30;0.30;;;;;;;18.52;44.59;98842.88;6245656;23;20402;-62
2021/08/27 10:04:57;;;;;;;0.10;0.10;;;;;;;18.53;44.65;98847.34;6246231;23;20366;-61
2021/08/27 10:07:32;;;;;;;0.32;0.32;;;;;;;18.53;44.57;98839.81;6245996;23;20027;-60
2021/08/27 10:10:00;;;;;;;0.10;0.10;;;;;;;18.55;44.43;98848.72;6245886;23;20062;-64
2021/08/27 10:12:27;;;;;;;0.10;0.10;;;;;;;18.49;44.74;98841.53;6245423;23;20004;-63
2021/08/27 10:14:53;;;;;;;0.10;0.10;;;;;;;18.42;44.75;98849.34;6218689;23;20070;-63
2021/08/27 10:17:19;;;;;;;0.10;0.10;;;;;;;18.27;45.18;98853.03;6245928;23;20008;-64
2021/08/27 10:19:45;;;;;;;0.20;0.20;;;;;;;18.05;45.41;98850.63;6245421;23;20008;-63
2021/08/27 10:22:12;;;;;;;0.20;0.20;;;;;;;17.84;45.82;98855.34;6245478;23;20015;-63
2021/08/27 10:24:39;;;;;;;0.10;0.10;;;;;;;17.60;46.34;98849.59;6245678;23;20012;-64
2021/08/27 10:27:08;;;;;;;0.25;0.25;;;;;;;17.34;46.83;98855.16;6245288;23;20008;-64
2021/08/27 10:29:35;;;;;;;0.10;0.10;;;;;;;17.12;47.06;98866.53;6245647;23;20045;-63
2021/08/27 10:32:01;;;;;;;0.30;0.30;;;;;;;16.93;47.34;98875.41;6245644;23;20087;-63
2021/08/27 10:34:41;;;;;;;0.20;0.20;;;;;;;16.80;47.33;98870.38;6217754;23;20467;-63
2021/08/27 10:37:08;;;;;;;0.10;0.10;;;;;;;16.75;47.21;98864.78;6245144;23;20044;-63
2021/08/27 10:39:45;;;;;;;1.35;0.85;;;;;;;16.73;47.03;98870.63;6245452;23;20092;-63
2021/08/27 10:42:47;;;;;;;0.10;0.10;;;;;;;16.74;46.87;98868.66;6245458;23;20015;-63
2021/08/27 10:45:14;;;;;;;0.20;0.20;;;;;;;16.84;46.68;98870.63;6245446;23;20015;-63
2021/08/27 10:48:12;;;;;;;0.10;0.10;;;;;;;17.12;46.06;98866.53;6245759;23;20066;-63
2021/08/27 10:50:40;;;;;;;0.10;0.10;;;;;;;17.31;45.59;98866.81;6245563;23;20432;-61
2021/08/27 10:53:35;;;;;;;7.10;0.77;;;;;;;17.52;45.10;98865.69;6245700;23;20066;-63
2021/08/27 10:56:09;;;;;;;0.10;0.10;;;;;;;17.68;44.87;98866.50;6245182;23;20015;-63
2021/08/27 10:58:42;;;;;;;0.10;0.10;;;;;;;17.88;44.43;98862.00;6245077;23;20393;-64
2021/08/27 11:01:28;;;;;;;0.80;0.38;;;;;;;18.07;44.26;98861.44;6245636;23;20455;-65
2021/08/27 11:04:16;;;;;;;0.10;0.10;;;;;;;18.06;44.22;98868.13;6255750;23;20072;-62
2021/08/27 11:06:55;;;;;;;0.20;0.20;;;;;;;17.86;44.66;98853.97;6244853;23;20044;-63
2021/08/27 11:09:22;;;;;;;0.20;0.20;;;;;;;17.72;44.93;98858.44;6244113;23;20016;-65
2021/08/27 11:12:07;;;;;;;0.38;0.38;;;;;;;17.67;45.20;98855.69;6243620;23;20008;-64
2021/08/27 11:14:34;;;;;;;0.10;0.10;;;;;;;17.55;45.40;98855.13;6243525;23;20057;-65
2021/08/27 11:17:03;;;;;;;0.98;0.40;;;;;;;17.45;45.56;98847.66;6244011;23;20322;-65
2021/08/27 11:19:37;;;;;;;0.10;0.10;;;;;;;17.57;45.29;98850.16;6243711;23;20038;-64
2021/08/27 11:22:12;;;;;;;0.25;0.25;;;;;;;17.66;44.90;98843.72;6243799;23;20014;-63
2021/08/27 11:24:40;;;;;;;0.10;0.10;;;;;;;17.80;44.73;98832.03;6243698;23;20019;-63
2021/08/27 11:27:08;;;;;;;0.50;0.50;;;;;;;17.95;44.52;98840.38;6243436;23;20461;-63
2021/08/27 11:29:42;;;;;;;0.10;0.10;;;;;;;18.03;44.32;98841.72;6243420;23;20065;-64
2021/08/27 11:32:11;;;;;;;0.15;0.15;;;;;;;17.96;44.59;98846.75;6243692;23;20055;-63
2021/08/27 11:34:55;;;;;;;0.10;0.10;;;;;;;17.77;44.79;98835.38;6215985;23;20016;-63
2021/08/27 11:37:25;;;;;;;0.10;0.10;;;;;;;17.80;44.76;98840.38;6243959;23;20059;-64
2021/08/27 11:39:52;;;;;;;0.10;0.10;;;;;;;17.69;45.05;98836.78;6243589;23;20019;-65
2021/08/27 11:42:22;;;;;;;0.75;0.73;;;;;;;17.63;45.09;98835.13;6243456;23;20008;-66
2021/08/27 11:45:08;;;;;;;0.10;0.10;;;;;;;17.57;45.03;98831.53;6243381;23;20544;-63